Time;durP1;ratioP1;P1;durP2;ratioP2;P2;SDS_P1;SDS_P2;PMS_P1;PMS_P2;Temp;Humidity;BMP_temperature;BMP_pressure;BME280_temperature;BME280_humidity;BME280_pressure;Samples;Min_cycle;Max_cycle;Signal;HPM_P1;HPM_P2
2021/10/18 00:01:12;;;;;;;12.15;8.65;;;;;;;14.40;53.67;102143.38;1738403;82;21542;-50
2021/10/18 00:03:38;;;;;;;11.25;8.65;;;;;;;14.36;53.73;102136.42;1738397;82;21010;-50
2021/10/18 00:06:07;;;;;;;13.45;9.40;;;;;;;14.37;53.79;102138.17;1737226;82;21529;-49
2021/10/18 00:08:33;;;;;;;12.50;8.88;;;;;;;14.34;53.80;102134.27;1725916;81;21034;-49
2021/10/18 00:11:02;;;;;;;13.22;9.30;;;;;;;14.32;53.79;102139.98;1738224;82;21094;-48
2021/10/18 00:13:29;;;;;;;13.30;9.05;;;;;;;14.28;53.59;102134.38;1738316;82;21057;-50
2021/10/18 00:15:57;;;;;;;13.65;9.33;;;;;;;14.24;53.44;102133.96;1742372;82;21534;-50
2021/10/18 00:18:24;;;;;;;12.85;9.38;;;;;;;14.21;53.53;102135.33;1737315;82;21074;-50
2021/10/18 00:20:52;;;;;;;12.30;9.15;;;;;;;14.16;53.69;102137.14;1737366;82;21578;-50
2021/10/18 00:23:20;;;;;;;12.13;9.00;;;;;;;14.14;53.67;102134.99;1738810;82;21106;-48
2021/10/18 00:25:47;;;;;;;11.85;8.58;;;;;;;14.12;53.80;102135.45;1738343;82;21022;-49
2021/10/18 00:28:15;;;;;;;13.98;9.03;;;;;;;14.11;53.65;102134.17;1736012;82;21035;-50
2021/10/18 00:30:42;;;;;;;13.45;9.10;;;;;;;14.08;53.54;102129.84;1735111;81;21051;-49
2021/10/18 00:33:09;;;;;;;10.60;8.48;;;;;;;14.08;53.48;102145.98;1735356;82;21035;-50
2021/10/18 00:35:36;;;;;;;11.65;8.40;;;;;;;14.06;53.52;102139.47;1735798;82;21545;-50
2021/10/18 00:38:02;;;;;;;12.88;9.38;;;;;;;14.05;53.51;102140.38;1735237;82;21026;-50
2021/10/18 00:40:30;;;;;;;10.43;8.83;;;;;;;14.04;53.58;102141.69;1738878;82;21002;-50
2021/10/18 00:42:57;;;;;;;10.48;8.15;;;;;;;13.98;53.58;102143.95;1738106;82;21093;-51
2021/10/18 00:45:24;;;;;;;11.03;8.23;;;;;;;13.95;53.54;102141.36;1735020;81;21507;-49
2021/10/18 00:47:50;;;;;;;11.95;8.80;;;;;;;13.95;53.68;102136.13;1733415;82;21050;-49
2021/10/18 00:50:17;;;;;;;11.78;8.33;;;;;;;13.95;53.60;102136.13;1742208;81;21034;-50
2021/10/18 00:52:44;;;;;;;10.20;8.45;;;;;;;13.94;53.44;102138.34;1735055;82;21018;-49
2021/10/18 00:55:10;;;;;;;11.03;8.50;;;;;;;13.94;53.38;102135.72;1735661;82;21050;-50
2021/10/18 00:57:37;;;;;;;11.70;9.25;;;;;;;13.92;53.41;102138.80;1736143;82;21030;-51
2021/10/18 01:00:06;;;;;;;10.15;8.73;;;;;;;13.92;53.40;102133.56;1738117;81;21543;-50
2021/10/18 01:02:33;;;;;;;10.68;8.20;;;;;;;13.93;53.28;102141.83;1736671;82;21467;-49
2021/10/18 01:04:59;;;;;;;10.00;8.50;;;;;;;13.91;53.26;102143.59;1735713;82;21034;-51
2021/10/18 01:07:26;;;;;;;10.82;8.65;;;;;;;13.87;53.34;102145.83;1736834;82;21043;-50
2021/10/18 01:09:53;;;;;;;10.32;9.00;;;;;;;13.85;53.42;102146.30;1727000;82;21015;-50
2021/10/18 01:12:19;;;;;;;11.18;9.05;;;;;;;13.87;53.63;102153.69;1727485;82;21066;-48
2021/10/18 01:14:46;;;;;;;12.43;9.68;;;;;;;13.88;53.60;102150.20;1727280;82;21031;-50
2021/10/18 01:17:13;;;;;;;12.68;9.50;;;;;;;13.89;53.60;102149.30;1710663;82;20999;-51
2021/10/18 01:19:39;;;;;;;15.95;10.70;;;;;;;13.87;53.45;102151.06;1724119;82;21131;-50
2021/10/18 01:22:06;;;;;;;12.70;9.35;;;;;;;13.84;53.26;102151.13;1730678;82;21002;-50
2021/10/18 01:24:34;;;;;;;13.40;9.75;;;;;;;13.83;53.27;102151.99;1729843;82;21054;-49
2021/10/18 01:27:02;;;;;;;12.18;9.18;;;;;;;13.81;53.32;102152.45;1727371;82;21032;-50
2021/10/18 01:29:34;;;;;;;12.20;9.53;;;;;;;13.80;53.44;102162.52;1729234;82;21030;-50
2021/10/18 01:32:01;;;;;;;13.25;9.23;;;;;;;13.81;53.47;102153.33;1728921;82;20999;-50
2021/10/18 01:34:28;;;;;;;12.78;9.00;;;;;;;13.81;53.36;102153.77;1731006;82;21078;-50
2021/10/18 01:36:55;;;;;;;14.83;10.40;;;;;;;13.77;53.33;102153.38;1730400;82;21070;-50
2021/10/18 01:39:22;;;;;;;15.23;10.40;;;;;;;13.70;53.44;102153.05;1728482;82;20979;-49
2021/10/18 01:41:49;;;;;;;13.25;10.13;;;;;;;13.66;53.67;102160.05;1727537;82;21035;-50
2021/10/18 01:44:16;;;;;;;15.25;11.20;;;;;;;13.63;53.85;102155.31;1727284;82;21027;-50
2021/10/18 01:46:43;;;;;;;12.90;11.25;;;;;;;13.60;54.04;102154.05;1727505;82;21047;-51
2021/10/18 01:49:10;;;;;;;14.83;11.05;;;;;;;13.58;54.23;102157.97;1727489;82;21067;-50
2021/10/18 01:51:37;;;;;;;14.07;11.00;;;;;;;13.59;54.34;102158.84;1729759;82;21561;-50
2021/10/18 01:54:04;;;;;;;15.78;12.40;;;;;;;13.58;54.39;102161.05;1730640;82;21075;-49
2021/10/18 01:56:34;;;;;;;15.65;11.80;;;;;;;13.56;54.36;102158.91;1729854;82;21097;-49
2021/10/18 01:59:02;;;;;;;18.25;13.30;;;;;;;13.56;54.29;102162.83;1727448;82;21086;-50
2021/10/18 02:01:29;;;;;;;18.48;13.20;;;;;;;13.56;54.27;102165.44;1729137;82;21030;-50
2021/10/18 02:03:56;;;;;;;19.32;12.85;;;;;;;13.54;54.21;102169.83;1717425;82;20999;-50
2021/10/18 02:06:22;;;;;;;16.23;12.53;;;;;;;13.51;54.20;102168.10;1730408;82;21074;-49
2021/10/18 02:08:49;;;;;;;16.48;12.78;;;;;;;13.51;54.12;102167.23;1734720;82;21143;-50
2021/10/18 02:11:16;;;;;;;18.35;13.13;;;;;;;13.50;54.20;102173.32;1735407;82;20959;-50
2021/10/18 02:13:43;;;;;;;18.05;12.37;;;;;;;13.49;54.33;102174.22;1736665;82;21046;-50
2021/10/18 02:16:09;;;;;;;15.38;12.35;;;;;;;13.49;54.40;102168.99;1725298;82;21066;-50
2021/10/18 02:18:36;;;;;;;18.55;12.65;;;;;;;13.48;54.42;102178.58;1736454;82;21479;-49
2021/10/18 02:21:02;;;;;;;18.27;13.25;;;;;;;13.45;54.35;102171.22;1737151;82;21022;-50
2021/10/18 02:23:30;;;;;;;18.25;13.95;;;;;;;13.42;54.40;102173.42;1737551;82;21034;-50
2021/10/18 02:25:56;;;;;;;14.63;12.18;;;;;;;13.40;54.44;102171.70;1738697;82;21035;-49
2021/10/18 02:28:23;;;;;;;17.70;13.35;;;;;;;13.39;54.33;102180.44;1738444;82;21014;-50
2021/10/18 02:30:50;;;;;;;17.52;13.55;;;;;;;13.37;54.33;102176.98;1736063;82;20991;-49
2021/10/18 02:33:17;;;;;;;18.95;13.32;;;;;;;13.38;54.42;102177.38;1735147;82;21002;-49
2021/10/18 02:35:44;;;;;;;17.30;13.32;;;;;;;13.39;54.38;102180.44;1735725;82;21038;-50
2021/10/18 02:38:11;;;;;;;20.15;12.80;;;;;;;13.39;54.34;102190.90;1732672;82;21030;-49
2021/10/18 02:40:37;;;;;;;20.82;13.93;;;;;;;13.34;54.37;102183.53;1738673;82;21046;-49
2021/10/18 02:43:04;;;;;;;17.05;13.28;;;;;;;13.31;54.69;102184.88;1742987;82;20987;-49
2021/10/18 02:45:30;;;;;;;16.48;12.58;;;;;;;13.29;54.66;102181.42;1737332;82;20983;-49
2021/10/18 02:47:58;;;;;;;15.95;12.23;;;;;;;13.29;54.68;102187.48;1737868;82;21554;-49
2021/10/18 02:50:25;;;;;;;16.20;13.05;;;;;;;13.32;54.43;102192.70;1738453;82;21034;-49
2021/10/18 02:52:53;;;;;;;13.40;11.53;;;;;;;13.34;54.29;102190.06;1738610;82;21031;-50
2021/10/18 02:55:20;;;;;;;17.30;12.07;;;;;;;13.33;53.81;102184.43;1735892;82;20994;-50
2021/10/18 02:57:47;;;;;;;16.62;11.40;;;;;;;13.30;53.70;102184.45;1735639;82;21511;-50
2021/10/18 03:00:14;;;;;;;16.10;12.53;;;;;;;13.27;53.62;102185.80;1735438;81;21452;-50
2021/10/18 03:02:41;;;;;;;19.23;12.80;;;;;;;13.23;53.77;102186.72;1735582;82;21490;-49
2021/10/18 03:05:10;;;;;;;16.52;12.82;;;;;;;13.22;54.08;102182.35;1735401;82;21038;-50
2021/10/18 03:07:37;;;;;;;14.43;11.85;;;;;;;13.20;54.36;102185.42;1731926;82;21037;-51
2021/10/18 03:10:06;;;;;;;15.20;12.50;;;;;;;13.19;54.61;102191.08;1738384;82;21074;-49
2021/10/18 03:12:34;;;;;;;15.38;12.50;;;;;;;13.18;54.51;102183.27;1737557;82;21100;-48
2021/10/18 03:15:02;;;;;;;16.52;12.73;;;;;;;13.16;54.62;102190.25;1734500;82;21072;-49
2021/10/18 03:17:30;;;;;;;15.38;11.33;;;;;;;13.14;54.42;102182.87;1737786;82;21014;-49
2021/10/18 03:19:57;;;;;;;17.27;12.03;;;;;;;13.11;54.24;102192.06;1735250;82;21494;-49
2021/10/18 03:22:23;;;;;;;15.68;11.45;;;;;;;13.08;54.17;102192.08;1735340;82;21018;-49
2021/10/18 03:24:50;;;;;;;11.93;9.78;;;;;;;13.04;54.21;102194.70;1735344;82;21577;-49
2021/10/18 03:27:16;;;;;;;11.35;10.13;;;;;;;13.02;54.32;102196.43;1735333;82;21042;-50
2021/10/18 03:29:43;;;;;;;12.68;10.18;;;;;;;12.98;54.40;102193.42;1733250;82;21550;-49
2021/10/18 03:32:10;;;;;;;15.48;10.63;;;;;;;12.95;54.64;102190.85;1734213;82;21569;-50
2021/10/18 03:34:37;;;;;;;14.43;10.20;;;;;;;12.93;54.67;102201.76;1734389;82;21033;-50
2021/10/18 03:37:03;;;;;;;15.18;9.98;;;;;;;12.91;54.58;102203.52;1740327;82;21030;-49
2021/10/18 03:39:30;;;;;;;14.58;10.25;;;;;;;12.88;54.57;102210.05;1736972;82;21538;-49
2021/10/18 03:41:57;;;;;;;15.72;10.48;;;;;;;12.86;54.40;102207.02;1735581;82;21022;-49
2021/10/18 03:44:24;;;;;;;14.38;10.23;;;;;;;12.83;54.49;102207.06;1735315;82;21502;-49
2021/10/18 03:46:52;;;;;;;11.05;9.35;;;;;;;12.81;54.57;102200.55;1735193;82;21023;-49
2021/10/18 03:49:18;;;;;;;12.75;9.50;;;;;;;12.79;54.60;102208.84;1735587;81;20994;-50
2021/10/18 03:51:45;;;;;;;13.13;9.65;;;;;;;12.77;54.52;102210.60;1736864;81;21563;-50
2021/10/18 03:54:12;;;;;;;14.75;10.58;;;;;;;12.74;54.34;102202.77;1738741;82;20983;-49
2021/10/18 03:56:38;;;;;;;13.25;10.58;;;;;;;12.74;54.29;102210.61;1738249;82;21006;-50
2021/10/18 03:59:05;;;;;;;12.75;9.28;;;;;;;12.75;54.37;102209.75;1735375;82;21511;-49
2021/10/18 04:01:32;;;;;;;14.45;9.78;;;;;;;12.76;54.49;102204.06;1733984;82;21569;-50
2021/10/18 04:03:59;;;;;;;11.85;9.68;;;;;;;12.75;54.42;102209.75;1733881;82;20995;-49
2021/10/18 04:06:26;;;;;;;12.65;10.23;;;;;;;12.76;54.70;102210.16;1740111;81;21042;-49
2021/10/18 04:08:54;;;;;;;11.65;9.93;;;;;;;12.77;54.79;102205.81;1734942;82;21062;-50
2021/10/18 04:11:21;;;;;;;10.93;9.78;;;;;;;12.76;54.80;102202.32;1727152;82;21012;-49
2021/10/18 04:13:49;;;;;;;14.18;9.80;;;;;;;12.76;54.59;102208.85;1727160;82;21046;-50
2021/10/18 04:16:16;;;;;;;14.15;9.40;;;;;;;12.75;54.38;102207.13;1722922;82;20999;-49
2021/10/18 04:18:43;;;;;;;14.20;10.00;;;;;;;12.74;54.36;102210.61;1730326;82;21066;-49
2021/10/18 04:21:09;;;;;;;15.60;11.28;;;;;;;12.73;54.57;102211.50;1729320;82;21011;-50
2021/10/18 04:23:36;;;;;;;15.05;11.03;;;;;;;12.73;54.72;102214.12;1728352;82;21067;-50
2021/10/18 04:26:03;;;;;;;11.70;10.05;;;;;;;12.71;54.96;102219.79;1729695;82;21043;-50
2021/10/18 04:28:29;;;;;;;14.55;10.43;;;;;;;12.68;54.68;102210.66;1721010;82;21007;-51
2021/10/18 04:30:57;;;;;;;13.03;10.75;;;;;;;12.66;54.79;102217.64;1727530;82;21062;-51
2021/10/18 04:33:24;;;;;;;14.40;11.38;;;;;;;12.63;55.12;102216.34;1729136;82;21576;-50
2021/10/18 04:35:51;;;;;;;14.68;10.40;;;;;;;12.65;55.38;102218.50;1730586;82;21515;-49
2021/10/18 04:38:17;;;;;;;15.53;10.75;;;;;;;12.66;55.65;102216.33;1730116;82;21030;-50
2021/10/18 04:40:44;;;;;;;15.05;11.33;;;;;;;12.64;55.81;102220.70;1727543;82;21495;-50
2021/10/18 04:43:11;;;;;;;15.18;11.40;;;;;;;12.62;55.86;102223.77;1733137;82;21023;-51
2021/10/18 04:45:38;;;;;;;14.33;10.80;;;;;;;12.59;56.03;102221.16;1725730;82;21043;-50
2021/10/18 04:48:05;;;;;;;16.60;11.83;;;;;;;12.58;56.20;102225.97;1732506;82;21543;-50
2021/10/18 04:50:32;;;;;;;14.85;11.43;;;;;;;12.56;56.26;102231.64;1728475;82;21003;-50
2021/10/18 04:52:59;;;;;;;18.92;11.48;;;;;;;12.56;56.20;102238.59;1727628;82;21537;-50
2021/10/18 04:55:27;;;;;;;14.05;10.60;;;;;;;12.53;56.22;102235.55;1727511;82;20999;-50
2021/10/18 04:57:58;;;;;;;17.15;12.23;;;;;;;12.53;56.17;102246.47;1727645;82;21046;-50
2021/10/18 05:00:27;;;;;;;13.83;10.32;;;;;;;12.53;56.11;102244.70;1727043;82;21059;-50
2021/10/18 05:02:53;;;;;;;13.88;11.28;;;;;;;12.55;55.96;102240.33;1728467;82;21510;-50
2021/10/18 05:05:20;;;;;;;14.23;11.55;;;;;;;12.58;55.88;102244.24;1730436;82;21035;-49
2021/10/18 05:08:05;;;;;;;14.13;11.10;;;;;;;12.57;55.70;102250.33;1730626;82;21010;-51
2021/10/18 05:10:34;;;;;;;13.03;10.65;;;;;;;12.56;55.40;102252.52;1738062;82;21015;-50
2021/10/18 05:13:00;;;;;;;11.63;10.23;;;;;;;12.53;55.29;102254.30;1737653;82;21411;-49
2021/10/18 05:15:27;;;;;;;12.35;10.13;;;;;;;12.52;55.18;102259.95;1734849;82;21007;-51
2021/10/18 05:17:54;;;;;;;14.47;10.80;;;;;;;12.53;55.07;102262.13;1733929;82;21042;-50
2021/10/18 05:20:21;;;;;;;13.65;10.75;;;;;;;12.54;54.97;102259.50;1740007;82;21034;-50
2021/10/18 05:22:48;;;;;;;12.90;10.78;;;;;;;12.53;54.82;102270.80;1737451;82;21027;-50
2021/10/18 05:25:15;;;;;;;17.55;11.50;;;;;;;12.53;54.70;102269.50;1724699;82;21033;-50
2021/10/18 05:27:42;;;;;;;15.80;11.18;;;;;;;12.55;54.72;102273.44;1736164;82;21031;-50
2021/10/18 05:30:10;;;;;;;14.18;10.75;;;;;;;12.56;54.92;102276.45;1737949;82;21023;-49
2021/10/18 05:32:36;;;;;;;13.13;11.22;;;;;;;12.54;55.12;102285.61;1738543;82;21522;-48
2021/10/18 05:35:05;;;;;;;10.60;9.38;;;;;;;12.56;54.91;102282.98;1738423;82;21019;-50
2021/10/18 05:37:31;;;;;;;17.17;10.98;;;;;;;12.58;54.90;102292.55;1737519;82;20959;-50
2021/10/18 05:39:58;;;;;;;13.68;10.72;;;;;;;12.59;54.86;102292.97;1735523;82;20995;-50
2021/10/18 05:42:25;;;;;;;14.38;10.28;;;;;;;12.61;54.73;102297.73;1735235;82;20991;-50
2021/10/18 05:44:51;;;;;;;16.07;11.00;;;;;;;12.63;54.39;102299.91;1727510;82;21027;-51
2021/10/18 05:47:18;;;;;;;13.55;10.30;;;;;;;12.67;54.61;102305.57;1735627;82;21498;-51
2021/10/18 05:49:44;;;;;;;15.23;10.13;;;;;;;12.72;54.75;102305.08;1735630;82;20979;-51
2021/10/18 05:52:11;;;;;;;12.93;9.60;;;;;;;12.79;54.61;102305.48;1735498;82;20982;-51
2021/10/18 05:54:38;;;;;;;12.88;10.08;;;;;;;12.86;54.44;102315.00;1735348;82;21008;-51
2021/10/18 05:57:04;;;;;;;15.68;10.15;;;;;;;12.97;54.22;102315.81;1736304;82;20991;-51
2021/10/18 05:59:32;;;;;;;11.93;9.38;;;;;;;13.10;53.82;102315.75;1738520;82;21026;-49
2021/10/18 06:01:59;;;;;;;14.20;10.30;;;;;;;13.18;53.27;102316.56;1738645;82;21022;-50
2021/10/18 06:04:25;;;;;;;15.20;10.45;;;;;;;13.23;52.62;102322.64;1736053;82;21495;-50
2021/10/18 06:06:52;;;;;;;14.60;10.00;;;;;;;13.25;52.82;102331.33;1737712;82;21074;-50
2021/10/18 06:09:18;;;;;;;14.95;10.13;;;;;;;13.23;52.87;102334.40;1733842;82;21097;-50
2021/10/18 06:11:46;;;;;;;11.78;10.25;;;;;;;13.22;52.81;102333.95;1730933;82;21054;-50
2021/10/18 06:14:13;;;;;;;13.03;10.75;;;;;;;13.21;52.89;102338.77;1730280;82;21054;-50
2021/10/18 06:16:40;;;;;;;14.00;9.95;;;;;;;13.21;52.85;102340.08;1719678;82;21074;-50
2021/10/18 06:19:07;;;;;;;13.83;10.82;;;;;;;13.21;52.89;102350.53;1727572;82;21093;-50
2021/10/18 06:21:34;;;;;;;10.85;9.38;;;;;;;13.24;52.79;102350.06;1726044;82;21006;-51
2021/10/18 06:24:01;;;;;;;14.47;9.80;;;;;;;13.27;52.61;102347.88;1722865;82;21039;-49
2021/10/18 06:26:28;;;;;;;13.20;10.25;;;;;;;13.31;52.37;102344.36;1727433;82;21071;-51
2021/10/18 06:28:54;;;;;;;15.68;10.78;;;;;;;13.35;52.35;102346.94;1727155;82;21034;-50
2021/10/18 06:31:21;;;;;;;15.63;10.28;;;;;;;13.42;52.24;102351.66;1723421;82;21007;-50
2021/10/18 06:33:49;;;;;;;15.18;10.35;;;;;;;13.50;52.12;102347.22;1729283;82;21539;-50
2021/10/18 06:36:15;;;;;;;15.15;10.43;;;;;;;13.59;51.69;102353.70;1728238;82;21027;-50
2021/10/18 06:38:42;;;;;;;12.03;8.90;;;;;;;13.67;51.60;102346.64;1729580;82;21062;-50
2021/10/18 06:41:09;;;;;;;12.30;9.38;;;;;;;13.74;51.38;102349.64;1717218;82;21027;-51
2021/10/18 06:43:36;;;;;;;14.30;10.05;;;;;;;13.81;51.11;102347.38;1730574;82;21528;-49
2021/10/18 06:46:03;;;;;;;16.02;9.80;;;;;;;13.87;51.28;102352.55;1734371;82;21129;-50
2021/10/18 06:48:32;;;;;;;13.45;9.70;;;;;;;13.92;51.16;102352.08;1728926;82;20991;-52
2021/10/18 06:50:58;;;;;;;13.95;9.58;;;;;;;13.97;51.25;102348.11;1729730;82;21074;-51
2021/10/18 06:53:33;;;;;;;12.35;9.35;;;;;;;14.01;51.26;102350.69;1717767;82;21046;-51
2021/10/18 06:56:02;;;;;;;12.20;9.68;;;;;;;14.04;51.13;102348.02;1724169;82;21043;-48
2021/10/18 06:58:28;;;;;;;12.85;9.95;;;;;;;14.06;50.94;102354.09;1730513;82;21035;-49
2021/10/18 07:00:54;;;;;;;16.25;9.80;;;;;;;14.08;50.93;102353.64;1729811;82;21040;-50
2021/10/18 07:03:21;;;;;;;11.55;9.60;;;;;;;14.10;50.84;102358.41;1727481;82;21034;-52
2021/10/18 07:05:48;;;;;;;17.02;10.10;;;;;;;14.12;50.84;102355.34;1729044;82;21043;-50
2021/10/18 07:08:18;;;;;;;13.90;10.50;;;;;;;14.16;50.51;102350.49;1731209;82;21034;-50
2021/10/18 07:10:45;;;;;;;14.23;10.48;;;;;;;14.20;50.64;102348.73;1736514;82;21101;-50
2021/10/18 07:13:12;;;;;;;12.73;9.68;;;;;;;14.22;50.41;102349.11;1738371;82;21101;-51
2021/10/18 07:15:40;;;;;;;14.73;10.28;;;;;;;14.23;50.66;102348.68;1722195;82;21034;-50
2021/10/18 07:18:08;;;;;;;14.33;10.85;;;;;;;14.28;50.96;102348.20;1737304;82;21046;-50
2021/10/18 07:20:36;;;;;;;12.65;10.23;;;;;;;14.27;51.41;102353.87;1739352;82;21074;-50
2021/10/18 07:23:08;;;;;;;16.77;10.98;;;;;;;14.28;51.64;102352.13;1738397;82;21039;-50
2021/10/18 07:25:31;;;;;;;15.15;11.60;;;;;;;14.30;51.80;102357.77;1734205;82;21086;-50
2021/10/18 07:27:59;;;;;;;18.23;12.05;;;;;;;14.29;51.88;102356.06;1735691;82;21034;-51
2021/10/18 07:30:26;;;;;;;13.62;11.63;;;;;;;14.30;52.07;102357.77;1735325;82;21073;-49
2021/10/18 07:32:52;;;;;;;16.60;12.05;;;;;;;14.31;52.27;102352.98;1735242;82;21077;-50
2021/10/18 07:35:21;;;;;;;17.17;12.82;;;;;;;14.32;52.29;102359.09;1735470;82;21042;-50
2021/10/18 07:40:23;;;;;;;13.43;11.90;;;;;;;14.34;52.69;102360.78;1701153;84;21569;-50
2021/10/18 07:42:49;;;;;;;17.62;12.60;;;;;;;14.37;52.85;102352.03;1699448;84;21545;-49
2021/10/18 07:45:16;;;;;;;18.00;12.23;;;;;;;14.39;52.89;102351.13;1708255;84;21043;-48
2021/10/18 07:47:43;;;;;;;14.65;11.20;;;;;;;14.43;52.62;102352.83;1703556;84;21111;-50
2021/10/18 07:50:11;;;;;;;15.95;12.25;;;;;;;14.46;52.62;102346.26;1699367;84;21075;-52
2021/10/18 07:52:39;;;;;;;17.15;12.25;;;;;;;14.53;52.53;102349.20;1701732;84;21050;-50
2021/10/18 07:55:13;;;;;;;17.40;12.00;;;;;;;14.60;52.73;102353.93;1700695;84;21039;-54
2021/10/18 07:57:38;;;;;;;;;;;;;;;14.66;52.91;102349.91;1705380;84;22200;-51
2021/10/18 08:00:07;;;;;;;15.85;12.78;;;;;;;14.75;52.93;102347.63;1701657;84;20127;-50
2021/10/18 08:02:34;;;;;;;17.00;13.13;;;;;;;14.82;52.92;102346.19;1702181;84;21586;-50
2021/10/18 08:05:01;;;;;;;18.35;13.15;;;;;;;14.89;52.83;102347.85;1698335;84;21027;-51
2021/10/18 08:07:31;;;;;;;14.13;12.05;;;;;;;14.96;52.83;102342.92;1703123;84;21577;-52
2021/10/18 08:09:59;;;;;;;17.80;12.60;;;;;;;15.04;52.63;102346.77;1700138;84;21619;-51
2021/10/18 08:12:26;;;;;;;17.55;12.23;;;;;;;15.12;52.29;102344.89;1701248;84;21092;-52
2021/10/18 08:14:53;;;;;;;16.23;11.70;;;;;;;15.18;52.23;102342.17;1688759;84;21038;-51
2021/10/18 08:17:20;;;;;;;14.70;11.65;;;;;;;15.25;51.77;102343.83;1705489;84;21514;-51
2021/10/18 08:19:46;;;;;;;12.50;10.75;;;;;;;15.29;51.53;102342.88;1704650;84;21079;-49
2021/10/18 08:22:13;;;;;;;14.55;11.93;;;;;;;15.33;51.42;102344.56;1701661;84;21003;-52
2021/10/18 08:24:40;;;;;;;16.45;12.95;;;;;;;15.34;51.59;102336.66;1698641;84;21029;-51
2021/10/18 08:27:06;;;;;;;16.37;12.30;;;;;;;15.39;51.72;102343.99;1699008;84;21513;-49
2021/10/18 08:29:33;;;;;;;16.40;12.70;;;;;;;15.45;51.76;102345.27;1704425;84;21023;-49
2021/10/18 08:31:59;;;;;;;19.20;12.82;;;;;;;15.48;51.80;102339.08;1701913;84;21010;-49
2021/10/18 08:34:26;;;;;;;15.38;12.88;;;;;;;15.53;51.96;102340.31;1702221;84;21003;-49
2021/10/18 08:36:52;;;;;;;14.65;12.45;;;;;;;15.55;51.88;102340.72;1717508;82;21069;-51
2021/10/18 08:42:06;;;;;;;14.28;11.85;;;;;;;15.65;51.76;102339.66;1687108;84;21567;-52
2021/10/18 08:44:34;;;;;;;18.15;12.00;;;;;;;15.70;51.77;102333.91;1644185;87;21559;-50
2021/10/18 08:47:02;;;;;;;16.62;11.48;;;;;;;15.76;51.98;102335.10;1686623;85;21018;-51
2021/10/18 08:49:29;;;;;;;16.57;12.03;;;;;;;15.80;51.81;102330.22;1686348;85;21589;-49
2021/10/18 08:51:57;;;;;;;16.77;11.63;;;;;;;15.90;51.75;102333.09;1686455;85;21530;-49
2021/10/18 08:54:23;;;;;;;15.75;11.33;;;;;;;15.99;51.43;102333.36;1686511;85;21038;-50
2021/10/18 08:56:50;;;;;;;13.45;10.68;;;;;;;16.05;51.44;102335.39;1643261;87;21095;-49
2021/10/18 08:59:17;;;;;;;12.28;10.88;;;;;;;16.08;50.70;102331.41;1686613;85;21041;-48
2021/10/18 09:01:50;;;;;;;26.87;10.95;;;;;;;16.13;50.26;102329.58;1680799;85;21605;-51
2021/10/18 09:04:27;;;;;;;12.68;9.78;;;;;;;16.18;49.86;102329.46;1686599;85;21034;-49
2021/10/18 09:07:00;;;;;;;17.15;10.85;;;;;;;16.21;49.53;102326.34;1643975;87;21114;-50
2021/10/18 09:09:29;;;;;;;12.37;9.93;;;;;;;16.25;49.67;102322.77;1647269;86;21527;-51
2021/10/18 09:11:59;;;;;;;16.45;11.33;;;;;;;16.28;49.17;102314.80;1693804;85;21120;-49
2021/10/18 09:14:28;;;;;;;19.17;10.95;;;;;;;16.33;49.27;102315.16;1693650;85;21057;-49
2021/10/18 09:17:00;;;;;;;12.90;11.03;;;;;;;16.38;49.43;102314.63;1669189;83;21585;-50
2021/10/18 09:19:26;;;;;;;17.75;10.48;;;;;;;16.42;49.65;102309.72;1736879;82;21501;-49
2021/10/18 09:21:58;;;;;;;14.53;10.13;;;;;;;16.46;49.55;102307.44;1741367;82;20986;-50
2021/10/18 09:24:39;;;;;;;15.32;9.58;;;;;;;16.51;49.40;102307.78;1737951;82;21561;-50
2021/10/18 09:27:09;;;;;;;13.40;10.48;;;;;;;16.55;49.51;102307.30;1737211;82;22372;-50
2021/10/18 09:29:45;;;;;;;15.20;10.25;;;;;;;16.58;49.55;102312.02;1740027;82;20994;-50
2021/10/18 09:32:22;;;;;;;15.43;9.68;;;;;;;16.63;49.08;102307.52;1743067;82;20998;-49
2021/10/18 09:34:48;;;;;;;14.50;9.33;;;;;;;16.67;48.57;102307.02;1690466;84;21046;-49
2021/10/18 09:37:16;;;;;;;15.80;10.63;;;;;;;16.72;48.17;102305.13;1691945;85;21006;-50
2021/10/18 09:39:47;;;;;;;13.98;10.35;;;;;;;16.73;48.07;102306.88;1691019;85;21586;-50
2021/10/18 09:42:19;;;;;;;15.15;9.28;;;;;;;16.75;47.68;102307.70;1691829;84;21030;-50
2021/10/18 10:52:50;;;;;;;8.88;6.37;;;;;;;17.29;40.85;102249.81;1452969;97;21124;-51
2021/10/18 10:55:26;;;;;;;9.55;6.67;;;;;;;17.31;40.61;102251.95;1462756;97;21101;-51
2021/10/18 10:57:56;;;;;;;9.33;7.10;;;;;;;17.35;40.98;102253.59;1484329;96;21189;-51
2021/10/18 11:00:41;;;;;;;14.25;7.53;;;;;;;17.40;41.05;102249.09;1483988;96;21155;-51
2021/10/18 11:03:31;;;;;;;11.63;7.30;;;;;;;17.41;40.86;102247.33;1483646;96;21668;-52
2021/10/18 11:06:06;;;;;;;11.97;7.83;;;;;;;17.43;41.31;102248.16;1469806;97;21122;-50
2021/10/18 11:08:36;;;;;;;8.35;6.90;;;;;;;17.45;40.93;102249.85;1469653;97;21113;-50
2021/10/18 11:11:22;;;;;;;10.30;7.15;;;;;;;17.46;40.75;102251.56;1459845;97;21649;-52
2021/10/18 11:13:54;;;;;;;11.40;7.20;;;;;;;17.46;40.74;102246.30;1478028;96;21636;-49
2021/10/18 11:16:23;;;;;;;9.20;7.53;;;;;;;17.46;40.70;102246.30;1472996;96;21133;-49
2021/10/18 11:18:59;;;;;;;10.82;7.97;;;;;;;17.44;41.13;102248.11;1481616;96;21598;-50
2021/10/18 11:21:32;;;;;;;10.58;7.20;;;;;;;17.43;41.73;102247.71;1484230;96;21630;-53
2021/10/18 11:24:04;;;;;;;9.10;7.15;;;;;;;17.42;41.62;102238.08;1472398;95;21193;-48
2021/10/18 11:26:36;;;;;;;11.33;7.55;;;;;;;17.44;41.28;102243.29;1449089;99;21168;-56
2021/10/18 11:29:07;;;;;;;9.58;7.75;;;;;;;17.44;41.18;102245.48;1448309;98;21137;-49
2021/10/18 11:31:42;;;;;;;9.30;7.50;;;;;;;17.46;41.32;102243.67;1383607;101;21162;-50
2021/10/18 11:34:19;;;;;;;11.25;7.50;;;;;;;17.49;41.12;102242.31;1352854;106;21176;-50
2021/10/18 11:36:49;;;;;;;12.20;7.75;;;;;;;17.50;40.75;102246.66;1371333;103;21190;-48
2021/10/18 11:39:22;;;;;;;10.50;7.22;;;;;;;17.49;40.58;102242.31;1371539;103;21135;-49
2021/10/18 11:42:05;;;;;;;11.10;7.42;;;;;;;17.50;40.76;102239.20;1380092;103;21131;-49
2021/10/18 11:44:55;;;;;;;10.08;7.72;;;;;;;17.50;40.97;102238.77;1386647;103;21150;-49
2021/10/18 11:47:30;;;;;;;12.23;7.60;;;;;;;17.51;40.54;102235.25;1404061;102;21604;-49
2021/10/18 11:50:21;;;;;;;14.43;7.33;;;;;;;17.53;40.35;102236.06;1408537;102;21128;-49
2021/10/18 11:52:54;;;;;;;13.97;8.00;;;;;;;17.53;40.35;102228.17;1412832;101;21060;-50
2021/10/18 11:55:25;;;;;;;11.22;7.15;;;;;;;17.54;40.52;102229.87;1422974;99;21113;-52
2021/10/18 11:57:53;;;;;;;10.35;7.22;;;;;;;17.55;40.72;102228.99;1427099;99;21183;-50
2021/10/18 12:00:27;;;;;;;9.10;6.75;;;;;;;17.56;40.25;102222.80;1426572;99;21697;-48
2021/10/18 12:02:59;;;;;;;10.63;7.35;;;;;;;17.58;40.36;102222.31;1418563;99;21561;-49
2021/10/18 12:05:25;;;;;;;13.05;8.00;;;;;;;17.60;40.10;102224.89;1423869;99;21098;-50
2021/10/18 12:07:51;;;;;;;10.25;6.90;;;;;;;17.59;39.81;102221.42;1426631;99;21115;-50
2021/10/18 12:10:25;;;;;;;11.93;7.37;;;;;;;17.60;40.03;102225.77;1426768;99;21167;-49
2021/10/18 12:13:28;;;;;;;9.43;6.60;;;;;;;17.60;39.89;102215.23;1427914;100;21050;-49
2021/10/18 12:16:12;;;;;;;9.55;6.97;;;;;;;17.59;39.75;102225.37;1425894;100;21237;-48
2021/10/18 12:18:49;;;;;;;10.95;7.03;;;;;;;17.55;39.80;102222.41;1422403;99;21207;-51
2021/10/18 12:21:28;;;;;;;12.85;7.53;;;;;;;17.55;40.27;102228.99;1422279;101;21197;-51
2021/10/18 12:24:01;;;;;;;10.58;7.72;;;;;;;17.32;41.10;102222.12;1454924;98;21574;-51
2021/10/18 12:26:33;;;;;;;10.70;7.87;;;;;;;17.49;40.77;102224.31;1462963;98;21172;-52
2021/10/18 12:29:09;;;;;;;12.35;8.68;;;;;;;17.52;40.23;102226.42;1553408;90;21014;-50
2021/10/18 12:31:46;;;;;;;10.13;8.35;;;;;;;17.54;39.88;102223.30;1696351;83;21066;-49